createdAt,value
2018-09-29T00:01:43.231Z,1.97
2018-09-29T00:11:46.278Z,1.60
2018-09-29T00:21:49.359Z,1.60
2018-09-29T00:31:52.488Z,1.80
2018-09-29T00:41:55.559Z,1.55
2018-09-29T00:51:58.607Z,1.60
2018-09-29T01:02:01.511Z,1.90
2018-09-29T01:12:04.565Z,1.80
2018-09-29T01:22:07.728Z,1.50
2018-09-29T01:32:10.672Z,1.40
2018-09-29T01:42:13.644Z,1.47
2018-09-29T01:52:16.701Z,1.53
2018-09-29T02:02:21.987Z,1.40
2018-09-29T02:12:25.055Z,1.60
2018-09-29T02:22:28.034Z,1.43
2018-09-29T02:32:31.053Z,1.67
2018-09-29T02:42:33.989Z,1.57
2018-09-29T02:52:37.091Z,1.27
2018-09-29T03:02:40.152Z,1.30
2018-09-29T03:12:43.520Z,1.60
2018-09-29T03:22:46.707Z,1.42
2018-09-29T03:32:49.728Z,1.40
2018-09-29T03:42:52.670Z,1.60
2018-09-29T03:52:55.771Z,1.67
2018-09-29T04:02:58.823Z,1.50
2018-09-29T04:13:01.889Z,1.43
2018-09-29T04:23:04.911Z,1.30
2018-09-29T04:33:08.084Z,1.25
2018-09-29T04:43:11.109Z,1.30
2018-09-29T04:53:14.251Z,1.33
2018-09-29T05:03:17.427Z,1.20
2018-09-29T05:13:20.556Z,1.50
2018-09-29T05:23:23.577Z,1.67
2018-09-29T05:33:26.597Z,1.50
2018-09-29T05:43:29.599Z,1.57
2018-09-29T05:53:32.662Z,1.80
2018-09-29T06:03:38.554Z,1.60
2018-09-29T06:13:41.613Z,1.63
2018-09-29T06:23:44.514Z,1.80
2018-09-29T06:33:47.520Z,2.60
2018-09-29T06:43:50.536Z,2.25
2018-09-29T06:53:53.575Z,3.10
2018-09-29T07:03:56.530Z,4.30
2018-09-29T07:13:59.680Z,4.05
2018-09-29T07:24:02.783Z,3.83
2018-09-29T07:34:05.776Z,4.05
2018-09-29T07:44:09.222Z,3.60
2018-09-29T07:54:12.220Z,3.50
2018-09-29T08:04:15.328Z,3.57
2018-09-29T08:14:18.447Z,3.40
2018-09-29T08:24:21.535Z,3.30
2018-09-29T08:34:24.570Z,2.90
2018-09-29T08:44:27.676Z,2.90
2018-09-29T08:54:30.835Z,2.70
2018-09-29T09:04:33.779Z,2.77
2018-09-29T09:14:36.864Z,2.90
2018-09-29T09:24:39.818Z,2.63
2018-09-29T09:34:42.963Z,2.90
2018-09-29T09:44:46.111Z,3.07
2018-09-29T09:54:49.343Z,2.70
2018-09-29T10:04:52.426Z,2.77
2018-09-29T10:14:55.569Z,2.60
2018-09-29T10:24:58.610Z,2.80
2018-09-29T10:35:01.609Z,2.10
2018-09-29T10:45:04.795Z,2.08
2018-09-29T10:55:07.807Z,2.10
2018-09-29T11:05:10.878Z,1.90
2018-09-29T11:15:13.813Z,2.37
2018-09-29T11:25:16.899Z,1.60
2018-09-29T11:35:20.014Z,2.67
2018-09-29T11:45:23.188Z,1.80
2018-09-29T11:55:27.318Z,1.83
2018-09-29T12:05:30.429Z,1.80
2018-09-29T12:15:33.483Z,1.10
2018-09-29T12:25:36.473Z,1.55
2018-09-29T12:35:39.453Z,1.20
2018-09-29T12:45:42.660Z,1.50
2018-09-29T12:55:45.699Z,1.40
2018-09-29T13:05:48.894Z,1.60
2018-09-29T13:15:52.122Z,1.33
2018-09-29T13:25:55.178Z,1.47
2018-09-29T13:35:58.207Z,1.30
2018-09-29T13:46:01.263Z,1.47
2018-09-29T13:56:04.400Z,1.63
2018-09-29T14:06:07.496Z,1.20
2018-09-29T14:16:10.395Z,1.40
2018-09-29T14:26:13.383Z,1.30
2018-09-29T14:36:16.544Z,1.27
2018-09-29T14:46:19.743Z,1.10
2018-09-29T14:56:22.772Z,1.00
2018-09-29T15:06:25.825Z,1.40
2018-09-29T15:16:28.867Z,0.95
2018-09-29T15:26:31.992Z,1.03
2018-09-29T15:36:34.913Z,1.00
2018-09-29T15:46:38.508Z,1.47
2018-09-29T15:56:41.636Z,1.17
2018-09-29T16:06:44.727Z,1.10
2018-09-29T16:16:47.754Z,1.40
2018-09-29T16:26:50.878Z,1.10
2018-09-29T16:36:54.068Z,1.13
2018-09-29T16:46:57.290Z,1.10
2018-09-29T16:57:00.379Z,1.27
2018-09-29T17:07:03.442Z,1.37
2018-09-29T17:17:06.835Z,1.70
2018-09-29T17:27:09.907Z,1.90
2018-09-29T17:37:13.119Z,2.20
2018-09-29T17:47:16.171Z,2.43
2018-09-29T17:57:19.316Z,3.37
2018-09-29T18:07:22.427Z,4.08
2018-09-29T18:17:25.617Z,4.63
2018-09-29T18:27:28.727Z,4.70
2018-09-29T18:37:31.872Z,5.05
2018-09-29T18:47:35.078Z,5.43
2018-09-29T18:57:38.180Z,4.70
2018-09-29T19:07:41.283Z,4.67
2018-09-29T19:17:44.506Z,4.57
2018-09-29T19:27:47.712Z,4.50
2018-09-29T19:37:50.938Z,4.60
2018-09-29T19:47:54.183Z,4.60
2018-09-29T19:57:57.187Z,4.77
2018-09-29T20:08:00.323Z,4.50
2018-09-29T20:18:03.494Z,4.47
2018-09-29T20:28:07.579Z,4.70
2018-09-29T20:38:10.749Z,4.53
2018-09-29T20:48:15.345Z,6.03
2018-09-29T20:58:18.524Z,4.90
2018-09-29T21:08:21.670Z,5.10
2018-09-29T21:18:24.788Z,4.75
2018-09-29T21:28:28.701Z,5.37
2018-09-29T21:38:31.920Z,5.43
2018-09-29T21:48:35.067Z,4.90
2018-09-29T21:58:38.248Z,5.30
2018-09-29T22:08:41.859Z,5.00
2018-09-29T22:18:44.945Z,4.90
2018-09-29T22:28:48.466Z,5.00
2018-09-29T22:38:52.087Z,5.13
2018-09-29T22:48:56.516Z,5.00
2018-09-29T22:59:00.759Z,4.67
2018-09-29T23:09:04.824Z,5.10
2018-09-29T23:19:08.165Z,4.67
2018-09-29T23:29:11.188Z,4.40
2018-09-29T23:39:15.604Z,4.37
2018-09-29T23:49:18.585Z,4.60
2018-09-29T23:59:21.890Z,4.57
